Time;durP1;ratioP1;P1;durP2;ratioP2;P2;SDS_P1;SDS_P2;PMS_P1;PMS_P2;Temp;Humidity;BMP_temperature;BMP_pressure;BME280_temperature;BME280_humidity;BME280_pressure;Samples;Min_cycle;Max_cycle;Signal;HPM_P1;HPM_P2
2022/08/13 00:01:40;;;;;;;1.05;0.80;;;18.70;47.30;;;;;;4879534;29;20060;-75
2022/08/13 00:04:08;;;;;;;1.17;0.93;;;18.70;46.40;;;;;;4879489;29;20025;-75
2022/08/13 00:09:04;;;;;;;1.83;0.88;;;18.80;46.10;;;;;;4879683;29;20032;-77
2022/08/13 00:14:15;;;;;;;2.67;0.82;;;18.90;46.00;;;;;;4879363;29;20084;-75
2022/08/13 00:16:40;;;;;;;2.15;0.80;;;18.80;46.10;;;;;;4879272;29;20041;-76
2022/08/13 00:19:06;;;;;;;3.50;0.90;;;18.80;46.00;;;;;;4879436;29;20070;-75
2022/08/13 00:21:32;;;;;;;1.20;0.80;;;18.80;46.00;;;;;;4879235;29;20083;-77
2022/08/13 00:23:58;;;;;;;1.98;0.98;;;18.90;46.00;;;;;;4879375;29;20039;-77
2022/08/13 00:26:25;;;;;;;0.70;0.70;;;18.90;46.00;;;;;;4879503;29;20040;-76
2022/08/13 00:28:53;;;;;;;2.00;0.88;;;19.00;46.00;;;;;;4879468;29;20044;-75
2022/08/13 00:31:19;;;;;;;1.92;1.13;;;19.00;46.00;;;;;;4880366;29;20026;-75
2022/08/13 00:33:44;;;;;;;2.85;1.00;;;19.10;46.00;;;;;;4881613;29;20048;-75
2022/08/13 00:36:12;;;;;;;3.70;0.93;;;19.00;45.80;;;;;;4884525;29;20053;-74
2022/08/13 00:38:38;;;;;;;1.00;0.82;;;19.00;46.80;;;;;;4879982;29;20025;-75
2022/08/13 00:41:05;;;;;;;1.40;0.75;;;18.90;46.10;;;;;;4879288;29;20052;-75
2022/08/13 00:43:33;;;;;;;3.05;0.90;;;19.00;46.10;;;;;;4879297;29;20032;-75
2022/08/13 00:46:00;;;;;;;2.80;0.80;;;18.90;46.10;;;;;;4879272;29;20029;-75
2022/08/13 00:48:46;;;;;;;1.75;0.90;;;19.00;46.10;;;;;;4879353;29;20189;-75
2022/08/13 00:51:13;;;;;;;1.40;1.17;;;18.90;46.10;;;;;;4879145;29;20085;-75
2022/08/13 00:53:39;;;;;;;1.58;1.00;;;18.80;46.20;;;;;;4878911;29;20093;-75
2022/08/13 00:56:08;;;;;;;1.60;0.90;;;18.80;46.40;;;;;;4878961;29;20033;-75
2022/08/13 00:58:35;;;;;;;4.00;1.00;;;18.70;46.70;;;;;;4878907;29;20480;-75
2022/08/13 01:01:02;;;;;;;1.52;1.00;;;18.70;46.90;;;;;;4878930;29;20067;-75
2022/08/13 01:03:31;;;;;;;1.17;0.90;;;18.60;47.10;;;;;;4878877;29;20053;-75
2022/08/13 01:05:59;;;;;;;1.88;1.02;;;18.60;47.10;;;;;;4878925;29;20108;-76
2022/08/13 01:08:26;;;;;;;1.05;0.95;;;18.60;47.20;;;;;;4878969;29;20037;-76
2022/08/13 01:10:56;;;;;;;1.83;0.85;;;18.60;47.50;;;;;;4878827;29;20377;-77
2022/08/13 01:13:25;;;;;;;3.40;1.10;;;18.50;47.70;;;;;;4879029;29;20021;-76
2022/08/13 01:15:52;;;;;;;3.05;0.90;;;18.50;48.00;;;;;;4878802;29;20163;-76
2022/08/13 01:18:20;;;;;;;2.03;1.02;;;18.40;48.10;;;;;;4880529;29;20037;-75
2022/08/13 01:20:58;;;;;;;0.70;0.70;;;18.30;48.40;;;;;;4882205;29;20036;-75
2022/08/13 01:23:25;;;;;;;3.35;1.15;;;18.30;48.70;;;;;;4882269;29;20022;-75
2022/08/13 01:25:54;;;;;;;3.70;0.90;;;18.20;48.90;;;;;;4882071;29;20036;-75
2022/08/13 01:28:22;;;;;;;2.03;1.40;;;18.20;49.10;;;;;;4882203;29;20027;-75
2022/08/13 01:30:50;;;;;;;2.78;1.38;;;18.10;49.40;;;;;;4882138;29;20031;-74
2022/08/13 01:33:17;;;;;;;4.50;1.85;;;18.10;49.70;;;;;;4881964;29;20369;-74
2022/08/13 01:35:44;;;;;;;4.40;2.58;;;18.00;50.00;;;;;;4881756;29;20053;-74
2022/08/13 01:38:12;;;;;;;4.15;2.45;;;17.90;50.30;;;;;;4882031;29;20029;-74
2022/08/13 01:40:38;;;;;;;6.40;2.55;;;17.80;50.60;;;;;;4881702;29;20116;-74
2022/08/13 01:43:05;;;;;;;3.70;1.55;;;17.60;51.20;;;;;;4881699;29;20054;-74
2022/08/13 01:45:31;;;;;;;1.92;1.35;;;17.60;51.50;;;;;;4881848;29;20036;-75
2022/08/13 01:50:42;;;;;;;3.60;1.90;;;17.30;52.50;;;;;;4881986;29;20090;-76
2022/08/13 01:53:13;;;;;;;7.68;3.80;;;17.30;52.60;;;;;;4881959;29;20025;-77
2022/08/13 01:55:42;;;;;;;9.77;3.63;;;17.40;52.60;;;;;;4881780;29;20386;-75
2022/08/13 01:58:11;;;;;;;8.65;4.07;;;17.40;52.20;;;;;;4881713;29;20029;-74
2022/08/13 02:00:38;;;;;;;9.38;3.60;;;17.50;52.10;;;;;;4881465;29;20064;-75
2022/08/13 02:03:09;;;;;;;8.02;3.50;;;17.60;51.70;;;;;;4881678;29;20049;-75
2022/08/13 02:05:36;;;;;;;7.95;3.90;;;17.70;51.80;;;;;;4880539;29;20425;-77
2022/08/13 02:08:02;;;;;;;8.30;3.85;;;17.70;51.60;;;;;;4880336;29;20029;-79
2022/08/13 02:10:28;;;;;;;13.57;7.75;;;17.70;51.20;;;;;;4881473;29;20029;-76
2022/08/13 02:12:54;;;;;;;12.65;6.05;;;17.80;51.00;;;;;;4881395;29;20109;-75
2022/08/13 02:15:20;;;;;;;10.13;5.50;;;17.80;51.00;;;;;;4881470;29;20048;-76
2022/08/13 02:17:45;;;;;;;8.73;4.20;;;17.80;50.90;;;;;;4881320;29;20029;-76
2022/08/13 02:20:17;;;;;;;5.60;3.10;;;17.90;51.00;;;;;;4881094;29;20089;-75
2022/08/13 02:22:45;;;;;;;3.55;2.30;;;17.80;51.30;;;;;;4881399;29;20036;-75
2022/08/13 02:25:12;;;;;;;3.88;1.55;;;17.80;51.40;;;;;;4881200;29;20073;-74
2022/08/13 02:27:40;;;;;;;3.13;1.70;;;17.70;51.60;;;;;;4881251;29;20055;-76
2022/08/13 02:30:09;;;;;;;6.13;2.38;;;17.70;51.90;;;;;;4880742;29;20021;-75
2022/08/13 02:32:36;;;;;;;3.40;2.20;;;17.70;51.90;;;;;;4881122;29;20029;-76
2022/08/13 02:35:04;;;;;;;4.95;2.10;;;17.70;52.20;;;;;;4880995;29;20146;-77
2022/08/13 02:37:32;;;;;;;2.60;1.67;;;17.60;52.20;;;;;;4881082;29;20383;-75
2022/08/13 02:39:59;;;;;;;2.20;1.10;;;17.70;52.20;;;;;;4880998;29;20025;-76
2022/08/13 02:42:28;;;;;;;1.80;1.30;;;17.70;52.20;;;;;;4880896;29;20032;-75
2022/08/13 02:44:54;;;;;;;4.35;1.40;;;17.70;52.20;;;;;;4881007;29;20025;-77
2022/08/13 02:47:21;;;;;;;1.42;1.23;;;17.70;52.20;;;;;;4881084;29;20035;-75
2022/08/13 02:49:51;;;;;;;2.45;1.25;;;17.70;52.90;;;;;;4880898;29;20495;-75
2022/08/13 02:52:19;;;;;;;2.95;1.35;;;17.80;52.10;;;;;;4880744;29;20017;-77
2022/08/13 02:54:46;;;;;;;1.90;1.08;;;17.80;52.10;;;;;;4880651;29;20089;-76
2022/08/13 02:57:12;;;;;;;1.90;1.38;;;17.80;52.00;;;;;;4880868;29;20433;-77
2022/08/13 02:59:38;;;;;;;3.72;1.33;;;17.80;52.10;;;;;;4880630;29;20036;-75
2022/08/13 03:02:05;;;;;;;3.75;1.30;;;17.80;52.30;;;;;;4880624;29;20025;-76
2022/08/13 03:04:32;;;;;;;4.38;1.35;;;17.80;52.30;;;;;;4880412;29;20111;-75
2022/08/13 03:06:58;;;;;;;1.52;0.98;;;17.80;52.40;;;;;;4880565;29;20129;-75
2022/08/13 03:09:24;;;;;;;3.50;1.40;;;17.90;53.20;;;;;;4880469;29;20033;-77
2022/08/13 03:11:50;;;;;;;4.32;1.48;;;17.90;52.20;;;;;;4880500;29;20090;-76
2022/08/13 03:14:18;;;;;;;6.68;1.65;;;17.90;52.50;;;;;;4880307;29;20041;-76
2022/08/13 03:16:44;;;;;;;2.60;1.40;;;17.80;52.80;;;;;;4880420;29;20025;-76
2022/08/13 03:19:10;;;;;;;3.03;1.42;;;17.70;53.00;;;;;;4880357;29;20225;-79
2022/08/13 03:21:41;;;;;;;4.47;1.33;;;17.70;53.30;;;;;;4880241;29;20023;-76
2022/08/13 03:24:08;;;;;;;1.98;1.50;;;17.60;53.50;;;;;;4880346;29;20029;-78
2022/08/13 03:26:35;;;;;;;1.33;1.23;;;17.40;54.20;;;;;;4880523;29;20025;-75
2022/08/13 03:29:01;;;;;;;5.85;1.77;;;17.40;54.60;;;;;;4880155;29;20384;-75
2022/08/13 03:31:27;;;;;;;2.80;1.65;;;17.40;54.80;;;;;;4880146;29;20508;-76
2022/08/13 03:33:54;;;;;;;4.15;1.90;;;17.30;54.90;;;;;;4879987;29;20399;-76
2022/08/13 03:36:21;;;;;;;3.70;1.60;;;17.30;55.40;;;;;;4879783;29;20056;-75
2022/08/13 03:38:46;;;;;;;3.97;1.45;;;17.30;55.50;;;;;;4880178;29;20036;-75
2022/08/13 03:41:14;;;;;;;3.63;1.73;;;17.30;55.80;;;;;;4878976;29;20035;-75
2022/08/13 03:43:45;;;;;;;2.33;1.45;;;17.20;55.90;;;;;;4879818;29;20021;-75
2022/08/13 03:46:24;;;;;;;1.95;1.52;;;17.20;56.20;;;;;;4879843;29;20033;-77
2022/08/13 03:48:50;;;;;;;2.35;1.30;;;17.20;56.20;;;;;;4879880;29;20370;-76
2022/08/13 03:51:19;;;;;;;3.42;1.50;;;17.20;56.10;;;;;;4879781;29;20037;-76
2022/08/13 03:53:45;;;;;;;1.85;1.58;;;17.30;56.10;;;;;;4879644;29;20436;-76
2022/08/13 03:56:12;;;;;;;4.57;1.63;;;17.30;56.00;;;;;;4879780;29;20024;-76
2022/08/13 03:58:38;;;;;;;3.42;1.30;;;17.30;56.10;;;;;;4879688;29;20460;-76
2022/08/13 04:01:05;;;;;;;4.97;1.50;;;17.30;56.00;;;;;;4879502;29;20021;-77
2022/08/13 04:03:36;;;;;;;1.88;1.42;;;17.30;55.90;;;;;;4879417;29;20105;-77
2022/08/13 04:06:20;;;;;;;5.40;1.77;;;17.40;54.90;;;;;;4879526;29;20113;-77
2022/08/13 04:08:48;;;;;;;6.18;1.52;;;17.30;54.60;;;;;;4879564;29;20021;-74
2022/08/13 04:11:17;;;;;;;1.75;1.40;;;17.10;55.00;;;;;;4879290;29;20037;-74
2022/08/13 04:13:44;;;;;;;2.75;1.20;;;17.10;55.70;;;;;;4879242;29;20048;-74
2022/08/13 04:16:16;;;;;;;3.40;1.50;;;17.10;55.80;;;;;;4879557;29;20035;-75
2022/08/13 04:18:44;;;;;;;2.63;1.70;;;16.80;56.00;;;;;;4880234;29;20559;-74
2022/08/13 04:21:15;;;;;;;3.40;1.52;;;16.70;56.70;;;;;;4886728;29;20037;-75
2022/08/13 04:23:43;;;;;;;1.45;1.35;;;16.70;57.00;;;;;;4880554;29;20060;-76
2022/08/13 04:26:11;;;;;;;1.70;1.52;;;16.80;57.90;;;;;;4881487;29;20052;-76
2022/08/13 04:28:41;;;;;;;3.63;1.60;;;16.90;57.00;;;;;;4879273;29;20021;-76
2022/08/13 04:31:09;;;;;;;3.28;1.40;;;16.70;56.70;;;;;;4879252;29;20544;-76
2022/08/13 04:33:36;;;;;;;4.25;1.60;;;16.40;58.00;;;;;;4879193;29;20033;-77
2022/08/13 04:36:03;;;;;;;3.78;1.60;;;16.50;57.80;;;;;;4879200;29;20053;-76
2022/08/13 04:38:29;;;;;;;3.17;1.58;;;16.60;57.50;;;;;;4879187;29;20063;-76
2022/08/13 04:40:55;;;;;;;6.78;1.60;;;16.70;57.20;;;;;;4879176;29;20030;-76
2022/08/13 04:43:21;;;;;;;4.95;1.50;;;16.70;56.90;;;;;;4879181;29;20050;-76
2022/08/13 04:45:47;;;;;;;1.60;1.35;;;16.70;56.90;;;;;;4879345;29;20382;-76
2022/08/13 04:48:15;;;;;;;1.55;1.38;;;16.80;56.60;;;;;;4879187;29;20037;-77
2022/08/13 04:50:42;;;;;;;3.80;1.50;;;16.90;56.40;;;;;;4879075;29;20376;-76
2022/08/13 04:53:21;;;;;;;2.08;1.30;;;17.00;56.10;;;;;;4880685;29;20516;-77
2022/08/13 04:55:46;;;;;;;2.50;1.60;;;17.10;55.80;;;;;;4882806;29;20045;-78
2022/08/13 04:58:12;;;;;;;5.70;1.90;;;17.20;55.30;;;;;;4882830;29;20029;-76
2022/08/13 05:00:37;;;;;;;1.73;1.48;;;17.20;55.00;;;;;;4882689;29;20044;-76
2022/08/13 05:03:11;;;;;;;3.28;1.48;;;17.30;54.90;;;;;;4882641;29;20464;-76
2022/08/13 05:05:37;;;;;;;2.55;2.20;;;17.10;55.20;;;;;;4881396;29;20079;-77
2022/08/13 05:08:04;;;;;;;2.75;1.58;;;17.20;55.20;;;;;;4882608;29;20041;-77
2022/08/13 05:10:31;;;;;;;4.75;1.70;;;17.00;55.40;;;;;;4882565;29;20031;-76
2022/08/13 05:13:01;;;;;;;2.17;1.83;;;17.10;55.50;;;;;;4882528;29;20108;-77
2022/08/13 05:15:27;;;;;;;2.45;1.73;;;17.10;55.20;;;;;;4882545;29;20085;-79
2022/08/13 05:17:53;;;;;;;3.08;1.70;;;17.20;54.90;;;;;;4882414;29;20025;-79
2022/08/13 05:20:19;;;;;;;4.07;2.30;;;17.20;54.70;;;;;;4882256;29;20029;-78
2022/08/13 05:22:45;;;;;;;1.83;1.67;;;17.20;55.00;;;;;;4882381;29;20103;-79
2022/08/13 05:25:10;;;;;;;4.80;1.65;;;17.20;54.70;;;;;;4882264;29;20053;-78
2022/08/13 05:27:36;;;;;;;1.98;1.52;;;17.30;54.70;;;;;;4882106;29;20065;-76
2022/08/13 05:30:03;;;;;;;4.22;1.75;;;17.40;54.30;;;;;;4881997;29;20099;-76
2022/08/13 05:32:28;;;;;;;3.72;1.55;;;17.40;54.20;;;;;;4882054;29;20094;-77
2022/08/13 05:34:54;;;;;;;3.13;2.00;;;17.30;54.70;;;;;;4880648;29;20045;-76
2022/08/13 05:37:19;;;;;;;3.42;1.60;;;17.40;54.60;;;;;;4881812;29;20028;-79
2022/08/13 05:39:47;;;;;;;1.40;1.30;;;17.50;54.50;;;;;;4881943;29;20033;-79
2022/08/13 05:42:13;;;;;;;2.47;1.70;;;17.60;53.90;;;;;;4881883;29;20079;-80
2022/08/13 05:44:39;;;;;;;1.42;1.33;;;17.70;53.60;;;;;;4881861;29;20468;-81
2022/08/13 05:47:05;;;;;;;4.75;1.55;;;17.80;53.50;;;;;;4881840;29;20033;-75
2022/08/13 05:49:30;;;;;;;3.47;1.75;;;17.90;53.20;;;;;;4881685;29;20040;-78
2022/08/13 05:51:57;;;;;;;5.40;1.88;;;17.80;53.10;;;;;;4881759;29;20033;-77
2022/08/13 05:54:23;;;;;;;3.38;1.25;;;17.70;53.90;;;;;;4881613;29;20090;-76
2022/08/13 05:56:49;;;;;;;4.80;1.98;;;17.70;54.20;;;;;;4881659;29;20032;-76
2022/08/13 06:04:43;;;;;;;5.32;1.88;;;17.90;53.50;;;;;;4880897;29;20511;-77
2022/08/13 06:07:13;;;;;;;3.75;1.55;;;17.80;53.40;;;;;;4880405;29;20037;-76
2022/08/13 06:09:39;;;;;;;3.97;1.50;;;18.00;53.30;;;;;;4881698;29;20029;-77
2022/08/13 06:12:04;;;;;;;4.35;1.70;;;18.20;53.00;;;;;;4881513;29;20417;-76
2022/08/13 06:14:34;;;;;;;1.73;1.63;;;18.30;52.90;;;;;;4881415;29;20124;-76
2022/08/13 06:17:02;;;;;;;2.20;1.88;;;18.40;52.70;;;;;;4881422;29;20029;-76
2022/08/13 06:19:30;;;;;;;2.58;1.38;;;18.30;53.00;;;;;;4881308;29;20056;-76
2022/08/13 06:22:02;;;;;;;2.47;1.67;;;18.30;53.00;;;;;;4881170;29;20072;-76
2022/08/13 06:24:32;;;;;;;4.88;1.95;;;18.40;52.60;;;;;;4881139;29;20120;-76
2022/08/13 06:27:04;;;;;;;1.60;1.40;;;18.40;52.40;;;;;;4881059;29;20021;-75
2022/08/13 06:29:34;;;;;;;1.75;1.58;;;18.50;52.30;;;;;;4880973;29;20084;-76
2022/08/13 06:32:03;;;;;;;3.53;1.60;;;18.50;52.30;;;;;;4880692;29;20113;-76
2022/08/13 06:34:31;;;;;;;3.53;1.80;;;18.30;52.90;;;;;;4880818;29;20051;-75
2022/08/13 06:36:58;;;;;;;2.58;1.55;;;18.50;52.70;;;;;;4880996;29;20060;-77
2022/08/13 06:39:26;;;;;;;1.67;1.50;;;18.60;52.20;;;;;;4879550;29;20028;-74
2022/08/13 06:41:52;;;;;;;3.60;1.33;;;18.80;51.70;;;;;;4881016;29;20036;-77
2022/08/13 06:44:19;;;;;;;1.50;1.33;;;19.00;51.00;;;;;;4880833;29;20076;-77
2022/08/13 06:46:46;;;;;;;2.25;1.50;;;19.30;50.50;;;;;;4879424;29;20109;-76
2022/08/13 06:49:11;;;;;;;1.50;1.40;;;19.40;49.90;;;;;;4879144;29;20060;-76
2022/08/13 06:51:37;;;;;;;2.53;1.58;;;19.60;49.20;;;;;;4879270;29;20481;-77
2022/08/13 06:54:08;;;;;;;16.45;2.15;;;19.60;49.10;;;;;;4880424;29;20043;-80
2022/08/13 06:56:34;;;;;;;2.65;1.80;;;19.70;49.20;;;;;;4879517;29;20087;-76
2022/08/13 06:59:00;;;;;;;1.45;1.25;;;19.60;49.20;;;;;;4880710;29;20032;-76
2022/08/13 07:01:27;;;;;;;5.38;1.45;;;19.60;49.40;;;;;;4880902;29;20494;-77
2022/08/13 07:03:56;;;;;;;2.95;1.45;;;19.60;49.60;;;;;;4881154;29;20025;-77
2022/08/13 07:06:27;;;;;;;2.85;1.65;;;19.60;49.80;;;;;;4880685;29;20033;-76
2022/08/13 07:09:01;;;;;;;19.27;3.40;;;19.40;49.80;;;;;;4879270;29;20108;-84
2022/08/13 07:11:29;;;;;;;6.07;1.90;;;19.60;49.70;;;;;;4881110;29;20089;-86
2022/08/13 07:14:02;;;;;;;9.45;2.00;;;19.90;48.90;;;;;;4882069;29;20017;-87
2022/08/13 07:16:34;;;;;;;5.78;1.60;;;20.20;47.80;;;;;;4880685;29;20068;-78
2022/08/13 07:19:00;;;;;;;4.55;1.70;;;20.50;47.40;;;;;;4880234;29;20617;-77
2022/08/13 07:21:27;;;;;;;3.97;1.55;;;20.60;46.70;;;;;;4880147;29;20054;-77
2022/08/13 07:23:54;;;;;;;1.65;1.40;;;20.50;47.30;;;;;;4880137;29;20032;-76
2022/08/13 07:26:21;;;;;;;3.60;1.77;;;20.60;47.30;;;;;;4881122;29;20047;-76
2022/08/13 07:28:51;;;;;;;5.80;1.60;;;20.80;46.30;;;;;;4880257;29;20033;-78
2022/08/13 07:31:29;;;;;;;2.72;1.60;;;20.80;46.80;;;;;;4883303;29;20024;-79
2022/08/13 07:33:56;;;;;;;2.08;1.60;;;20.80;46.10;;;;;;4902022;29;20028;-78
2022/08/13 07:36:24;;;;;;;3.70;1.70;;;21.00;45.70;;;;;;4902425;29;20065;-77
2022/08/13 07:38:49;;;;;;;5.07;1.33;;;21.10;45.60;;;;;;4903614;29;20025;-77
2022/08/13 07:41:16;;;;;;;3.53;1.50;;;21.30;45.30;;;;;;4902203;29;20057;-78
2022/08/13 07:43:43;;;;;;;4.15;1.45;;;21.40;44.50;;;;;;4902583;29;20036;-76
2022/08/13 07:46:15;;;;;;;3.80;1.73;;;21.30;45.10;;;;;;4899532;29;20017;-79
2022/08/13 07:48:47;;;;;;;2.25;1.42;;;21.40;45.00;;;;;;4902117;29;20084;-77
2022/08/13 07:51:20;;;;;;;5.05;1.50;;;21.50;44.70;;;;;;4889307;29;20082;-77
2022/08/13 07:53:54;;;;;;;2.30;1.25;;;21.50;45.30;;;;;;4881980;29;20028;-79
2022/08/13 07:56:28;;;;;;;3.67;1.20;;;21.60;44.40;;;;;;4881693;29;20033;-78
2022/08/13 07:59:00;;;;;;;2.20;1.40;;;21.90;42.10;;;;;;4880530;29;20467;-78
2022/08/13 08:01:27;;;;;;;1.77;1.35;;;22.00;40.20;;;;;;4881652;29;20068;-78
2022/08/13 08:03:56;;;;;;;0.93;0.93;;;22.10;39.60;;;;;;4881814;29;20025;-78
2022/08/13 08:06:22;;;;;;;1.48;1.08;;;22.30;37.80;;;;;;4881398;29;20092;-78
2022/08/13 08:08:53;;;;;;;2.65;1.10;;;22.50;37.90;;;;;;4879379;29;20111;-78
2022/08/13 08:14:05;;;;;;;4.30;1.27;;;22.80;37.50;;;;;;4879525;29;20110;-78
2022/08/13 08:16:37;;;;;;;1.77;1.38;;;22.90;35.90;;;;;;4879546;29;20426;-78
2022/08/13 08:19:05;;;;;;;3.30;1.20;;;23.00;36.00;;;;;;4879312;29;20029;-78
2022/08/13 08:21:32;;;;;;;3.33;1.42;;;23.00;36.00;;;;;;4879407;29;20029;-78
2022/08/13 08:23:59;;;;;;;2.03;1.00;;;23.10;35.50;;;;;;4879370;29;20032;-77
2022/08/13 08:26:30;;;;;;;4.85;1.25;;;23.10;36.00;;;;;;4879503;29;20033;-78
2022/08/13 08:28:58;;;;;;;1.38;0.90;;;23.20;35.50;;;;;;4878939;29;20033;-79
2022/08/13 08:31:26;;;;;;;2.42;1.08;;;23.20;35.00;;;;;;4879040;29;20112;-77
2022/08/13 08:33:54;;;;;;;2.97;1.15;;;23.30;35.80;;;;;;4879085;29;20490;-77
2022/08/13 08:36:20;;;;;;;1.45;1.10;;;23.50;36.10;;;;;;4879020;29;20052;-77
2022/08/13 08:44:23;;;;;;;;;;;23.90;33.90;;;;;;4879656;29;20388;-77
2022/08/13 08:46:53;;;;;;;1.55;1.00;;;24.00;33.40;;;;;;4879218;29;20366;-79
2022/08/13 08:49:21;;;;;;;1.67;0.88;;;24.00;32.90;;;;;;4879071;29;20500;-77
2022/08/13 08:51:50;;;;;;;2.35;1.10;;;24.00;32.70;;;;;;4879051;29;20033;-77
2022/08/13 08:54:17;;;;;;;2.60;1.20;;;24.10;32.40;;;;;;4879042;29;20033;-79
2022/08/13 08:56:54;;;;;;;1.00;0.90;;;24.10;31.80;;;;;;4879036;29;20488;-77
2022/08/13 08:59:27;;;;;;;3.03;2.20;;;24.10;31.90;;;;;;4878963;29;20109;-77
2022/08/13 09:01:55;;;;;;;2.45;0.90;;;24.30;31.70;;;;;;4878746;29;20113;-79
2022/08/13 09:04:25;;;;;;;1.90;1.05;;;24.40;31.10;;;;;;4878852;29;20492;-77
2022/08/13 09:06:52;;;;;;;2.83;1.08;;;24.40;31.10;;;;;;4878781;29;20036;-78
2022/08/13 09:09:19;;;;;;;3.53;0.80;;;24.40;31.00;;;;;;4878762;29;20033;-79
2022/08/13 09:11:50;;;;;;;3.33;1.17;;;24.50;30.60;;;;;;4878721;29;20052;-79
2022/08/13 09:14:18;;;;;;;1.75;1.00;;;24.60;30.40;;;;;;4877631;29;20468;-79
2022/08/13 09:16:43;;;;;;;3.10;1.30;;;24.60;30.00;;;;;;4878721;29;20032;-78
2022/08/13 09:19:13;;;;;;;1.95;1.05;;;24.40;29.30;;;;;;4878764;29;20114;-80
2022/08/13 09:21:46;;;;;;;2.53;1.35;;;24.30;29.70;;;;;;4878934;29;20407;-82
2022/08/13 09:24:15;;;;;;;5.10;1.35;;;24.30;30.20;;;;;;4878448;29;20130;-80
2022/08/13 09:26:45;;;;;;;1.13;0.98;;;24.40;30.80;;;;;;4878464;29;20029;-81
2022/08/13 09:29:14;;;;;;;1.13;0.90;;;24.40;31.40;;;;;;4878678;29;20471;-78
2022/08/13 09:31:44;;;;;;;2.33;1.10;;;24.40;29.90;;;;;;4878740;29;20037;-78
2022/08/13 09:34:10;;;;;;;2.38;0.98;;;24.40;29.90;;;;;;4878467;29;20034;-78
2022/08/13 09:36:37;;;;;;;1.08;1.00;;;24.50;30.20;;;;;;4878521;29;20529;-79
2022/08/13 09:39:04;;;;;;;6.60;1.15;;;24.70;30.60;;;;;;4878696;29;20104;-78
2022/08/13 09:41:40;;;;;;;1.73;1.15;;;25.00;30.00;;;;;;4881655;29;20033;-78
2022/08/13 09:44:05;;;;;;;1.08;0.95;;;25.20;27.50;;;;;;4881426;29;20021;-78
2022/08/13 09:46:34;;;;;;;3.45;1.10;;;25.40;27.80;;;;;;4881439;29;20021;-80
2022/08/13 09:49:00;;;;;;;1.48;0.90;;;25.70;28.30;;;;;;4881644;29;20021;-78
2022/08/13 09:51:35;;;;;;;2.33;1.70;;;26.00;27.80;;;;;;4880230;29;20041;-79
2022/08/13 09:54:09;;;;;;;4.18;1.20;;;26.20;27.40;;;;;;4881614;29;20033;-74
2022/08/13 09:56:39;;;;;;;1.67;0.90;;;26.30;26.80;;;;;;4881590;29;20028;-74
2022/08/13 09:59:06;;;;;;;1.08;0.90;;;26.40;25.90;;;;;;4881534;29;20033;-73
2022/08/13 10:01:34;;;;;;;2.00;1.08;;;26.40;25.60;;;;;;4881378;29;20081;-75
2022/08/13 10:03:59;;;;;;;1.55;1.27;;;26.40;25.20;;;;;;4881528;29;20052;-76
2022/08/13 10:06:28;;;;;;;2.33;1.30;;;26.50;25.50;;;;;;4880090;29;20064;-75
2022/08/13 10:08:59;;;;;;;3.60;2.05;;;26.60;25.50;;;;;;4881053;29;20043;-75
2022/08/13 10:11:24;;;;;;;1.42;1.10;;;26.60;25.50;;;;;;4880957;29;20032;-75
2022/08/13 10:13:50;;;;;;;3.60;1.23;;;26.60;25.40;;;;;;4880715;29;20025;-74
2022/08/13 10:16:15;;;;;;;1.55;1.27;;;26.50;26.00;;;;;;4880986;29;20028;-74
2022/08/13 10:18:42;;;;;;;1.50;0.90;;;26.50;26.30;;;;;;4880951;29;20472;-74
2022/08/13 10:21:08;;;;;;;3.50;0.90;;;26.40;26.50;;;;;;4881123;29;20052;-74
2022/08/13 10:23:35;;;;;;;2.38;1.20;;;26.40;26.80;;;;;;4880952;29;20056;-75
2022/08/13 10:26:01;;;;;;;1.17;1.05;;;26.40;27.10;;;;;;4880962;29;20636;-75
2022/08/13 10:28:31;;;;;;;4.03;1.70;;;26.50;26.90;;;;;;4880919;29;20029;-74
2022/08/13 10:31:08;;;;;;;4.13;1.50;;;26.60;26.40;;;;;;4881005;29;20718;-74
2022/08/13 10:33:37;;;;;;;3.78;1.35;;;26.80;25.40;;;;;;4880781;29;20029;-75
2022/08/13 10:36:05;;;;;;;6.70;1.15;;;27.10;25.00;;;;;;4880374;29;20230;-73
2022/08/13 10:38:32;;;;;;;1.27;1.08;;;27.30;24.30;;;;;;4880565;29;20383;-74
2022/08/13 10:41:04;;;;;;;1.10;0.93;;;27.60;24.20;;;;;;4880683;29;20035;-72
2022/08/13 10:43:31;;;;;;;2.17;1.13;;;27.90;23.40;;;;;;4879189;29;20437;-73
2022/08/13 10:45:59;;;;;;;5.22;1.15;;;28.20;22.80;;;;;;4880672;29;20033;-73
2022/08/13 10:48:25;;;;;;;2.90;1.20;;;28.20;22.30;;;;;;4880497;29;20112;-72
2022/08/13 10:50:53;;;;;;;2.90;1.00;;;28.40;20.80;;;;;;4880101;29;20460;-76
2022/08/13 10:56:04;;;;;;;1.77;0.98;;;28.30;21.30;;;;;;4880539;29;20404;-73
2022/08/13 10:58:31;;;;;;;1.70;0.95;;;28.20;20.60;;;;;;4880467;29;20487;-77
2022/08/13 11:00:59;;;;;;;3.22;1.05;;;28.30;20.40;;;;;;4880387;29;20031;-74
2022/08/13 11:03:24;;;;;;;1.42;1.05;;;28.40;20.40;;;;;;4880381;29;20085;-74
2022/08/13 11:05:50;;;;;;;3.45;1.05;;;28.60;19.90;;;;;;4880198;29;20037;-74
2022/08/13 11:08:15;;;;;;;1.13;1.02;;;28.80;19.70;;;;;;4880061;29;20088;-74
2022/08/13 11:10:41;;;;;;;4.03;1.10;;;29.00;18.90;;;;;;4880343;29;20033;-74
2022/08/13 11:13:07;;;;;;;1.73;1.15;;;28.90;18.10;;;;;;4879889;29;20484;-74
2022/08/13 11:15:33;;;;;;;1.45;1.10;;;28.80;18.30;;;;;;4879907;29;20176;-75
2022/08/13 11:17:59;;;;;;;1.98;1.00;;;29.00;19.00;;;;;;4879928;29;20025;-74
2022/08/13 11:20:27;;;;;;;1.00;0.90;;;29.30;18.40;;;;;;4879908;29;20111;-74
2022/08/13 11:22:54;;;;;;;2.72;1.08;;;29.40;18.40;;;;;;4880018;29;20021;-74
2022/08/13 11:25:21;;;;;;;2.47;0.77;;;29.50;17.50;;;;;;4879814;29;20107;-73
2022/08/13 11:27:47;;;;;;;1.23;1.08;;;29.30;18.10;;;;;;4879887;29;20022;-74
2022/08/13 11:30:14;;;;;;;1.40;0.95;;;29.20;18.40;;;;;;4879843;29;20029;-76
2022/08/13 11:32:40;;;;;;;0.93;0.80;;;29.20;18.30;;;;;;4878571;29;20449;-74
2022/08/13 11:35:06;;;;;;;2.13;1.10;;;29.20;17.50;;;;;;4879850;29;20110;-73
2022/08/13 11:37:33;;;;;;;2.83;0.90;;;29.00;17.60;;;;;;4879853;29;20667;-73
2022/08/13 11:39:58;;;;;;;2.40;0.98;;;29.00;18.60;;;;;;4878587;29;20033;-73
2022/08/13 11:42:24;;;;;;;1.27;1.02;;;29.00;19.20;;;;;;4879485;29;20033;-75
2022/08/13 11:44:49;;;;;;;0.85;0.73;;;29.10;20.30;;;;;;4879378;29;20108;-73
2022/08/13 11:47:15;;;;;;;3.28;1.20;;;29.30;18.90;;;;;;4879578;29;20472;-74
2022/08/13 11:49:40;;;;;;;3.78;1.27;;;29.60;18.10;;;;;;4879280;29;20029;-74
2022/08/13 11:52:07;;;;;;;3.22;1.73;;;29.40;17.30;;;;;;4878085;29;20033;-73
2022/08/13 11:54:33;;;;;;;2.38;1.17;;;29.40;17.70;;;;;;4879347;29;20116;-73
2022/08/13 11:57:03;;;;;;;2.70;1.23;;;29.30;17.70;;;;;;4879465;29;20119;-73
2022/08/13 11:59:29;;;;;;;3.53;1.27;;;29.30;17.90;;;;;;4879228;29;20028;-74
2022/08/13 12:01:54;;;;;;;4.43;1.60;;;29.10;18.40;;;;;;4878862;29;20029;-74
2022/08/13 12:04:20;;;;;;;1.05;1.05;;;29.00;19.20;;;;;;4878941;29;20112;-73
2022/08/13 12:06:45;;;;;;;2.15;1.25;;;29.30;19.00;;;;;;4879097;29;20499;-74
2022/08/13 12:09:11;;;;;;;1.67;1.27;;;29.50;17.90;;;;;;4879230;29;20036;-75
2022/08/13 12:11:36;;;;;;;2.28;1.45;;;29.70;17.70;;;;;;4879170;29;20029;-75
2022/08/13 12:14:02;;;;;;;3.05;1.20;;;29.40;18.00;;;;;;4878951;29;20033;-74
2022/08/13 12:16:28;;;;;;;3.40;1.25;;;29.50;18.00;;;;;;4878902;29;20041;-74
2022/08/13 12:18:54;;;;;;;2.53;1.42;;;29.60;18.10;;;;;;4879007;29;20081;-75
2022/08/13 12:21:19;;;;;;;3.50;1.38;;;29.90;18.30;;;;;;4879066;29;20061;-75
2022/08/13 12:23:45;;;;;;;7.68;1.30;;;30.20;18.20;;;;;;4878903;29;20496;-75
2022/08/13 12:26:10;;;;;;;2.08;1.55;;;30.60;18.00;;;;;;4879021;29;20484;-75
2022/08/13 12:28:36;;;;;;;3.33;1.50;;;30.90;17.20;;;;;;4879268;29;20025;-75
2022/08/13 12:31:05;;;;;;;1.80;1.40;;;31.10;16.70;;;;;;4879052;29;20025;-75
2022/08/13 12:33:31;;;;;;;2.75;1.33;;;30.80;15.70;;;;;;4877717;29;20464;-75
2022/08/13 12:36:01;;;;;;;1.83;1.30;;;30.80;16.80;;;;;;4877393;29;20139;-75
2022/08/13 12:38:28;;;;;;;4.45;1.30;;;31.00;16.50;;;;;;4878943;29;20035;-75
2022/08/13 12:40:53;;;;;;;2.83;1.33;;;31.30;16.00;;;;;;4879201;29;20096;-75
2022/08/13 12:43:19;;;;;;;2.13;1.63;;;31.50;15.80;;;;;;4879033;29;20445;-75
2022/08/13 12:45:45;;;;;;;1.60;1.33;;;31.70;15.10;;;;;;4879066;29;20056;-74
2022/08/13 12:48:13;;;;;;;1.88;1.08;;;31.80;15.00;;;;;;4878879;29;20105;-75
2022/08/13 12:50:41;;;;;;;1.40;1.20;;;32.00;15.90;;;;;;4878862;29;20092;-75
2022/08/13 12:53:06;;;;;;;2.58;1.23;;;32.00;14.50;;;;;;4878897;29;20021;-75
2022/08/13 12:55:33;;;;;;;2.90;1.30;;;32.00;14.20;;;;;;4878758;29;20033;-74
2022/08/13 12:58:10;;;;;;;3.28;1.13;;;31.60;13.90;;;;;;4878791;29;20022;-74
2022/08/13 13:00:36;;;;;;;5.13;1.60;;;31.50;14.30;;;;;;4878762;29;20099;-74
2022/08/13 13:03:01;;;;;;;1.98;1.33;;;31.40;14.70;;;;;;4878862;29;20100;-77
2022/08/13 13:05:27;;;;;;;3.08;0.93;;;31.10;14.80;;;;;;4879118;29;20096;-77
2022/08/13 13:07:52;;;;;;;3.83;1.27;;;31.30;15.70;;;;;;4878803;29;20391;-74
2022/08/13 13:10:19;;;;;;;1.05;0.98;;;31.30;14.90;;;;;;4878778;29;20037;-74
2022/08/13 13:12:44;;;;;;;1.15;1.00;;;31.60;14.70;;;;;;4878532;29;20552;-74
2022/08/13 13:15:10;;;;;;;4.45;1.45;;;32.00;15.00;;;;;;4881536;29;20041;-74